Nasco Pearl — VRHS2 — position and weather

sailwx.info

Track history (hours):
 
Tides and Currents Weather Stations Pressure Air Temp Water Temp Dewpoint Dewpoint Depression Visibility Wind Speed Wind Dir Waves Ship Positions

Nasco Pearl

Last reported at 2014-Jun-25 12:13 UTC. Time now 2014-Jul-26 15:10 UTC.
Position N 01°13' E 103°28'.
Warning: this ship's position is 31 days out of date.

Length 189 m; draft 11.1 m.

Type: Cargo ship. MMSI: 477982400.

Date/timePositionNaut miles runAvg speedWind from/ knotsBaromVisibWave heightAir tempDewpointWater temp
2014-Jun-25 12:13N 01°13' E 103°28'913.3
2014-Jun-25 11:33N 01°12' E 103°37'1212.3
2014-Jun-25 10:33N 01°11' E 103°49'  
2014-Jun-16 05:29N 37°11' E 123°15'1313.6
2014-Jun-16 04:33N 37°23' E 123°11'1412.4
2014-Jun-16 03:26N 37°36' E 123°04'3310.5
2014-Jun-16 00:21N 37°55' E 122°30'1012.4
2014-Jun-15 23:31N 37°60' E 122°19'1313.6
2014-Jun-15 22:32N 38°05' E 122°03'  
Track history (hours):
 
Tides and Currents Weather Stations Pressure Air Temp Water Temp Dewpoint Dewpoint Depression Visibility Wind Speed Wind Dir Waves Ship Positions

Nasco Pearl

Last reported at 2014-Jun-25 12:13 UTC. Time now 2014-Jul-26 15:10 UTC.
Position N 01°13' E 103°28'.
Warning: this ship's position is 31 days out of date.

Length 189 m; draft 11.1 m.

Type: Cargo ship. MMSI: 477982400.

Date/timePositionNaut miles runAvg speedWind from/ knotsBaromVisibWave heightAir tempDewpointWater temp
2014-Jun-25 12:13N 01°13' E 103°28'913.3
2014-Jun-25 11:33N 01°12' E 103°37'1212.3
2014-Jun-25 10:33N 01°11' E 103°49'  
2014-Jun-16 05:29N 37°11' E 123°15'1313.6
2014-Jun-16 04:33N 37°23' E 123°11'1412.4
2014-Jun-16 03:26N 37°36' E 123°04'3310.5
2014-Jun-16 00:21N 37°55' E 122°30'1012.4
2014-Jun-15 23:31N 37°60' E 122°19'1313.6
2014-Jun-15 22:32N 38°05' E 122°03'  

Dump ship's entire track history